sensor_id;sensor_type;location;lat;lon;timestamp;P1;durP1;ratioP1;P2;durP2;ratioP2
18280;SDS011;9266;51.132;17.062;2023-07-16T00:01:16;8.70;;;5.53;;
18280;SDS011;9266;51.132;17.062;2023-07-16T00:03:43;6.37;;;5.50;;
18280;SDS011;9266;51.132;17.062;2023-07-16T00:06:10;7.10;;;5.13;;
18280;SDS011;9266;51.132;17.062;2023-07-16T00:08:37;5.93;;;5.30;;
18280;SDS011;9266;51.132;17.062;2023-07-16T00:11:04;5.97;;;5.27;;
18280;SDS011;9266;51.132;17.062;2023-07-16T00:13:31;6.03;;;5.23;;
18280;SDS011;9266;51.132;17.062;2023-07-16T00:16:00;6.60;;;5.43;;
18280;SDS011;9266;51.132;17.062;2023-07-16T00:18:27;8.93;;;5.00;;
18280;SDS011;9266;51.132;17.062;2023-07-16T00:20:54;6.13;;;5.53;;
18280;SDS011;9266;51.132;17.062;2023-07-16T00:23:21;5.87;;;5.23;;
18280;SDS011;9266;51.132;17.062;2023-07-16T00:25:48;6.07;;;5.47;;
18280;SDS011;9266;51.132;17.062;2023-07-16T00:28:15;6.70;;;5.33;;
18280;SDS011;9266;51.132;17.062;2023-07-16T00:30:42;6.97;;;4.97;;
18280;SDS011;9266;51.132;17.062;2023-07-16T00:33:10;6.83;;;5.00;;
18280;SDS011;9266;51.132;17.062;2023-07-16T00:35:37;7.07;;;5.30;;
18280;SDS011;9266;51.132;17.062;2023-07-16T00:38:04;6.97;;;5.17;;
18280;SDS011;9266;51.132;17.062;2023-07-16T00:40:31;5.57;;;5.00;;
18280;SDS011;9266;51.132;17.062;2023-07-16T00:42:58;7.47;;;5.77;;
18280;SDS011;9266;51.132;17.062;2023-07-16T00:45:25;6.20;;;5.27;;
18280;SDS011;9266;51.132;17.062;2023-07-16T00:47:53;5.20;;;4.80;;
18280;SDS011;9266;51.132;17.062;2023-07-16T00:50:21;5.57;;;4.87;;
18280;SDS011;9266;51.132;17.062;2023-07-16T00:52:48;6.13;;;5.10;;
18280;SDS011;9266;51.132;17.062;2023-07-16T00:55:15;8.33;;;5.07;;
18280;SDS011;9266;51.132;17.062;2023-07-16T00:57:42;7.17;;;5.17;;
18280;SDS011;9266;51.132;17.062;2023-07-16T01:00:11;7.40;;;5.60;;
18280;SDS011;9266;51.132;17.062;2023-07-16T01:02:39;6.13;;;5.53;;
18280;SDS011;9266;51.132;17.062;2023-07-16T01:05:06;7.30;;;5.17;;
18280;SDS011;9266;51.132;17.062;2023-07-16T01:07:34;7.20;;;4.93;;
18280;SDS011;9266;51.132;17.062;2023-07-16T01:10:05;5.87;;;5.03;;
18280;SDS011;9266;51.132;17.062;2023-07-16T01:12:34;7.50;;;5.37;;
18280;SDS011;9266;51.132;17.062;2023-07-16T01:15:03;5.27;;;4.77;;
18280;SDS011;9266;51.132;17.062;2023-07-16T01:17:30;7.70;;;5.03;;
18280;SDS011;9266;51.132;17.062;2023-07-16T01:19:57;6.70;;;5.23;;
18280;SDS011;9266;51.132;17.062;2023-07-16T01:22:35;6.40;;;5.73;;
18280;SDS011;9266;51.132;17.062;2023-07-16T01:25:22;7.17;;;5.43;;
18280;SDS011;9266;51.132;17.062;2023-07-16T01:28:25;5.83;;;5.27;;
18280;SDS011;9266;51.132;17.062;2023-07-16T01:31:02;7.77;;;5.50;;
18280;SDS011;9266;51.132;17.062;2023-07-16T01:33:30;7.13;;;5.17;;
18280;SDS011;9266;51.132;17.062;2023-07-16T01:35:58;6.57;;;5.53;;
18280;SDS011;9266;51.132;17.062;2023-07-16T01:38:26;8.40;;;5.87;;
18280;SDS011;9266;51.132;17.062;2023-07-16T01:40:53;5.33;;;4.83;;
18280;SDS011;9266;51.132;17.062;2023-07-16T01:43:20;7.97;;;5.27;;
18280;SDS011;9266;51.132;17.062;2023-07-16T01:45:47;5.83;;;5.23;;
18280;SDS011;9266;51.132;17.062;2023-07-16T01:48:16;6.10;;;5.00;;
18280;SDS011;9266;51.132;17.062;2023-07-16T01:50:50;6.17;;;5.10;;
18280;SDS011;9266;51.132;17.062;2023-07-16T01:53:17;7.23;;;5.87;;
18280;SDS011;9266;51.132;17.062;2023-07-16T01:55:44;5.77;;;5.27;;
18280;SDS011;9266;51.132;17.062;2023-07-16T01:58:11;5.80;;;5.20;;
18280;SDS011;9266;51.132;17.062;2023-07-16T02:00:38;6.80;;;5.60;;
18280;SDS011;9266;51.132;17.062;2023-07-16T02:03:05;7.70;;;5.70;;
18280;SDS011;9266;51.132;17.062;2023-07-16T02:05:33;6.27;;;5.67;;
18280;SDS011;9266;51.132;17.062;2023-07-16T02:08:00;6.40;;;5.40;;
18280;SDS011;9266;51.132;17.062;2023-07-16T02:10:27;5.93;;;5.33;;
18280;SDS011;9266;51.132;17.062;2023-07-16T02:12:54;6.00;;;5.40;;
18280;SDS011;9266;51.132;17.062;2023-07-16T02:15:21;7.77;;;5.23;;
18280;SDS011;9266;51.132;17.062;2023-07-16T02:17:48;6.07;;;5.33;;
18280;SDS011;9266;51.132;17.062;2023-07-16T02:20:15;9.53;;;5.40;;
18280;SDS011;9266;51.132;17.062;2023-07-16T02:22:43;6.30;;;5.63;;
18280;SDS011;9266;51.132;17.062;2023-07-16T02:25:10;5.93;;;5.33;;
18280;SDS011;9266;51.132;17.062;2023-07-16T02:27:37;9.37;;;5.07;;
18280;SDS011;9266;51.132;17.062;2023-07-16T02:30:05;6.83;;;5.87;;
18280;SDS011;9266;51.132;17.062;2023-07-16T02:32:32;7.30;;;5.60;;
18280;SDS011;9266;51.132;17.062;2023-07-16T02:35:00;6.47;;;5.50;;
18280;SDS011;9266;51.132;17.062;2023-07-16T02:37:28;7.50;;;5.80;;
18280;SDS011;9266;51.132;17.062;2023-07-16T02:39:56;6.40;;;5.80;;
18280;SDS011;9266;51.132;17.062;2023-07-16T02:42:23;6.50;;;5.83;;
18280;SDS011;9266;51.132;17.062;2023-07-16T02:44:50;6.33;;;5.73;;
18280;SDS011;9266;51.132;17.062;2023-07-16T02:47:17;8.83;;;5.83;;
18280;SDS011;9266;51.132;17.062;2023-07-16T02:49:44;11.13;;;5.83;;
18280;SDS011;9266;51.132;17.062;2023-07-16T02:52:11;7.10;;;5.43;;
18280;SDS011;9266;51.132;17.062;2023-07-16T02:54:38;7.30;;;5.77;;
18280;SDS011;9266;51.132;17.062;2023-07-16T02:57:06;6.17;;;5.40;;
18280;SDS011;9266;51.132;17.062;2023-07-16T02:59:33;7.10;;;5.57;;
18280;SDS011;9266;51.132;17.062;2023-07-16T03:02:00;8.17;;;6.20;;
18280;SDS011;9266;51.132;17.062;2023-07-16T03:04:27;6.13;;;5.63;;
18280;SDS011;9266;51.132;17.062;2023-07-16T03:06:54;8.50;;;5.67;;
18280;SDS011;9266;51.132;17.062;2023-07-16T03:09:21;8.97;;;5.70;;
18280;SDS011;9266;51.132;17.062;2023-07-16T03:11:48;7.17;;;6.20;;
18280;SDS011;9266;51.132;17.062;2023-07-16T03:14:17;6.07;;;5.43;;
18280;SDS011;9266;51.132;17.062;2023-07-16T03:16:44;8.43;;;6.20;;
18280;SDS011;9266;51.132;17.062;2023-07-16T03:19:10;7.93;;;6.27;;
18280;SDS011;9266;51.132;17.062;2023-07-16T03:21:37;7.73;;;5.80;;
18280;SDS011;9266;51.132;17.062;2023-07-16T03:24:04;7.70;;;5.57;;
18280;SDS011;9266;51.132;17.062;2023-07-16T03:26:31;8.73;;;5.17;;
18280;SDS011;9266;51.132;17.062;2023-07-16T03:28:58;6.20;;;5.03;;
18280;SDS011;9266;51.132;17.062;2023-07-16T03:31:27;9.50;;;5.50;;
18280;SDS011;9266;51.132;17.062;2023-07-16T03:33:53;9.23;;;5.60;;
18280;SDS011;9266;51.132;17.062;2023-07-16T03:36:20;7.13;;;5.60;;
18280;SDS011;9266;51.132;17.062;2023-07-16T03:38:47;8.70;;;5.13;;
18280;SDS011;9266;51.132;17.062;2023-07-16T03:41:14;9.15;;;4.93;;
18280;SDS011;9266;51.132;17.062;2023-07-16T03:43:41;7.72;;;4.50;;
18280;SDS011;9266;51.132;17.062;2023-07-16T03:46:08;5.20;;;4.60;;
18280;SDS011;9266;51.132;17.062;2023-07-16T03:48:37;6.45;;;5.07;;
18280;SDS011;9266;51.132;17.062;2023-07-16T03:51:03;5.22;;;4.47;;
18280;SDS011;9266;51.132;17.062;2023-07-16T03:53:30;7.25;;;4.70;;
18280;SDS011;9266;51.132;17.062;2023-07-16T03:55:57;5.43;;;4.50;;
18280;SDS011;9266;51.132;17.062;2023-07-16T03:58:24;10.93;;;4.57;;
18280;SDS011;9266;51.132;17.062;2023-07-16T04:00:52;6.13;;;4.47;;
18280;SDS011;9266;51.132;17.062;2023-07-16T04:03:19;5.82;;;4.50;;
18280;SDS011;9266;51.132;17.062;2023-07-16T04:05:48;7.70;;;4.93;;
18280;SDS011;9266;51.132;17.062;2023-07-16T04:08:15;4.75;;;3.90;;
18280;SDS011;9266;51.132;17.062;2023-07-16T04:10:42;7.25;;;4.43;;
18280;SDS011;9266;51.132;17.062;2023-07-16T04:13:08;5.40;;;4.00;;
18280;SDS011;9266;51.132;17.062;2023-07-16T04:15:35;5.72;;;4.22;;
18280;SDS011;9266;51.132;17.062;2023-07-16T04:18:02;4.53;;;4.13;;
18280;SDS011;9266;51.132;17.062;2023-07-16T04:20:29;6.25;;;3.90;;
18280;SDS011;9266;51.132;17.062;2023-07-16T04:23:01;4.75;;;4.03;;
18280;SDS011;9266;51.132;17.062;2023-07-16T04:25:28;6.28;;;4.13;;
18280;SDS011;9266;51.132;17.062;2023-07-16T04:27:55;4.47;;;3.78;;
18280;SDS011;9266;51.132;17.062;2023-07-16T04:30:22;7.18;;;3.70;;
18280;SDS011;9266;51.132;17.062;2023-07-16T04:32:49;5.32;;;3.85;;
18280;SDS011;9266;51.132;17.062;2023-07-16T04:35:16;9.20;;;4.07;;
18280;SDS011;9266;51.132;17.062;2023-07-16T04:37:43;5.18;;;3.65;;
18280;SDS011;9266;51.132;17.062;2023-07-16T04:40:12;6.18;;;4.50;;
18280;SDS011;9266;51.132;17.062;2023-07-16T04:42:39;6.78;;;3.83;;
18280;SDS011;9266;51.132;17.062;2023-07-16T04:45:06;6.38;;;4.22;;
18280;SDS011;9266;51.132;17.062;2023-07-16T04:47:33;6.47;;;4.15;;
18280;SDS011;9266;51.132;17.062;2023-07-16T04:50:00;9.43;;;3.88;;
18280;SDS011;9266;51.132;17.062;2023-07-16T04:52:27;7.75;;;3.88;;
18280;SDS011;9266;51.132;17.062;2023-07-16T04:54:54;8.98;;;3.88;;
18280;SDS011;9266;51.132;17.062;2023-07-16T04:57:23;7.55;;;4.40;;
18280;SDS011;9266;51.132;17.062;2023-07-16T04:59:50;6.35;;;3.90;;
18280;SDS011;9266;51.132;17.062;2023-07-16T05:02:17;4.18;;;3.78;;
18280;SDS011;9266;51.132;17.062;2023-07-16T05:04:44;7.38;;;4.15;;
18280;SDS011;9266;51.132;17.062;2023-07-16T05:07:13;6.85;;;3.78;;
18280;SDS011;9266;51.132;17.062;2023-07-16T05:09:40;6.93;;;3.53;;
18280;SDS011;9266;51.132;17.062;2023-07-16T05:12:08;6.80;;;3.70;;
18280;SDS011;9266;51.132;17.062;2023-07-16T05:14:43;5.78;;;3.55;;
18280;SDS011;9266;51.132;17.062;2023-07-16T05:17:11;3.88;;;3.47;;
18280;SDS011;9266;51.132;17.062;2023-07-16T05:19:38;6.22;;;3.58;;
18280;SDS011;9266;51.132;17.062;2023-07-16T05:22:05;3.85;;;3.53;;
18280;SDS011;9266;51.132;17.062;2023-07-16T05:24:32;6.18;;;3.60;;
18280;SDS011;9266;51.132;17.062;2023-07-16T05:26:59;4.60;;;3.38;;
18280;SDS011;9266;51.132;17.062;2023-07-16T05:29:27;6.15;;;3.83;;
18280;SDS011;9266;51.132;17.062;2023-07-16T05:31:55;6.82;;;3.67;;
18280;SDS011;9266;51.132;17.062;2023-07-16T05:34:22;7.47;;;3.95;;
18280;SDS011;9266;51.132;17.062;2023-07-16T05:36:52;4.95;;;3.50;;
18280;SDS011;9266;51.132;17.062;2023-07-16T05:39:20;8.38;;;3.92;;
18280;SDS011;9266;51.132;17.062;2023-07-16T05:41:47;7.63;;;3.28;;
18280;SDS011;9266;51.132;17.062;2023-07-16T05:44:14;5.18;;;3.50;;
18280;SDS011;9266;51.132;17.062;2023-07-16T05:46:41;6.78;;;3.08;;
18280;SDS011;9266;51.132;17.062;2023-07-16T05:49:09;6.57;;;3.50;;
18280;SDS011;9266;51.132;17.062;2023-07-16T05:51:36;9.73;;;3.55;;
18280;SDS011;9266;51.132;17.062;2023-07-16T05:54:03;4.13;;;3.20;;
18280;SDS011;9266;51.132;17.062;2023-07-16T05:56:31;4.75;;;3.60;;
18280;SDS011;9266;51.132;17.062;2023-07-16T05:58:58;7.22;;;3.20;;
18280;SDS011;9266;51.132;17.062;2023-07-16T06:01:25;5.88;;;2.75;;
18280;SDS011;9266;51.132;17.062;2023-07-16T06:03:52;7.22;;;2.65;;
18280;SDS011;9266;51.132;17.062;2023-07-16T06:06:21;3.75;;;3.17;;
18280;SDS011;9266;51.132;17.062;2023-07-16T06:08:48;5.75;;;3.00;;
18280;SDS011;9266;51.132;17.062;2023-07-16T06:11:15;4.95;;;3.05;;
18280;SDS011;9266;51.132;17.062;2023-07-16T06:13:42;5.47;;;3.08;;
18280;SDS011;9266;51.132;17.062;2023-07-16T06:16:08;6.10;;;2.83;;
18280;SDS011;9266;51.132;17.062;2023-07-16T06:18:35;4.72;;;3.00;;
18280;SDS011;9266;51.132;17.062;2023-07-16T06:21:02;3.85;;;2.88;;
18280;SDS011;9266;51.132;17.062;2023-07-16T06:23:31;4.93;;;3.10;;
18280;SDS011;9266;51.132;17.062;2023-07-16T06:25:58;3.70;;;2.80;;
18280;SDS011;9266;51.132;17.062;2023-07-16T06:28:25;3.88;;;2.55;;
18280;SDS011;9266;51.132;17.062;2023-07-16T06:30:52;6.07;;;2.75;;
18280;SDS011;9266;51.132;17.062;2023-07-16T06:33:19;6.05;;;3.00;;
18280;SDS011;9266;51.132;17.062;2023-07-16T06:35:46;5.68;;;2.67;;
18280;SDS011;9266;51.132;17.062;2023-07-16T06:38:13;4.38;;;2.80;;
18280;SDS011;9266;51.132;17.062;2023-07-16T06:40:46;4.10;;;2.65;;
18280;SDS011;9266;51.132;17.062;2023-07-16T06:43:14;3.78;;;2.80;;
18280;SDS011;9266;51.132;17.062;2023-07-16T06:45:41;3.65;;;2.80;;
18280;SDS011;9266;51.132;17.062;2023-07-16T06:48:08;3.17;;;2.50;;
18280;SDS011;9266;51.132;17.062;2023-07-16T06:50:36;6.18;;;2.70;;
18280;SDS011;9266;51.132;17.062;2023-07-16T06:53:02;4.22;;;2.80;;
18280;SDS011;9266;51.132;17.062;2023-07-16T06:55:29;3.80;;;2.83;;
18280;SDS011;9266;51.132;17.062;2023-07-16T06:57:58;4.82;;;3.10;;
18280;SDS011;9266;51.132;17.062;2023-07-16T07:00:25;3.47;;;2.60;;
18280;SDS011;9266;51.132;17.062;2023-07-16T07:02:52;3.97;;;2.60;;
18280;SDS011;9266;51.132;17.062;2023-07-16T07:05:19;3.13;;;2.30;;
18280;SDS011;9266;51.132;17.062;2023-07-16T07:07:46;3.25;;;2.15;;
18280;SDS011;9266;51.132;17.062;2023-07-16T07:10:13;3.28;;;2.20;;
18280;SDS011;9266;51.132;17.062;2023-07-16T07:12:40;3.83;;;2.42;;
18280;SDS011;9266;51.132;17.062;2023-07-16T07:15:09;5.15;;;2.50;;
18280;SDS011;9266;51.132;17.062;2023-07-16T07:17:36;4.47;;;2.35;;
18280;SDS011;9266;51.132;17.062;2023-07-16T07:20:03;2.10;;;1.90;;
18280;SDS011;9266;51.132;17.062;2023-07-16T07:22:31;2.78;;;2.25;;
18280;SDS011;9266;51.132;17.062;2023-07-16T07:24:58;3.17;;;2.30;;
18280;SDS011;9266;51.132;17.062;2023-07-16T07:27:25;4.55;;;2.33;;
18280;SDS011;9266;51.132;17.062;2023-07-16T07:29:52;4.63;;;2.20;;
18280;SDS011;9266;51.132;17.062;2023-07-16T07:32:22;2.53;;;2.28;;
18280;SDS011;9266;51.132;17.062;2023-07-16T07:34:49;3.75;;;2.20;;
18280;SDS011;9266;51.132;17.062;2023-07-16T07:37:15;2.42;;;2.10;;
18280;SDS011;9266;51.132;17.062;2023-07-16T07:39:42;2.47;;;1.90;;
18280;SDS011;9266;51.132;17.062;2023-07-16T07:42:12;5.35;;;1.80;;
18280;SDS011;9266;51.132;17.062;2023-07-16T07:44:39;2.30;;;1.92;;
18280;SDS011;9266;51.132;17.062;2023-07-16T07:47:06;4.00;;;2.20;;
18280;SDS011;9266;51.132;17.062;2023-07-16T07:49:35;2.63;;;2.10;;
18280;SDS011;9266;51.132;17.062;2023-07-16T07:52:03;2.65;;;1.98;;
18280;SDS011;9266;51.132;17.062;2023-07-16T07:54:31;3.38;;;2.08;;
18280;SDS011;9266;51.132;17.062;2023-07-16T07:57:00;2.53;;;1.83;;
18280;SDS011;9266;51.132;17.062;2023-07-16T07:59:28;5.03;;;2.30;;
18280;SDS011;9266;51.132;17.062;2023-07-16T08:01:55;2.95;;;2.00;;
18280;SDS011;9266;51.132;17.062;2023-07-16T08:04:23;2.03;;;1.80;;
18280;SDS011;9266;51.132;17.062;2023-07-16T08:06:52;4.50;;;1.85;;
18280;SDS011;9266;51.132;17.062;2023-07-16T08:09:20;3.65;;;1.92;;
18280;SDS011;9266;51.132;17.062;2023-07-16T08:11:47;2.88;;;2.00;;
18280;SDS011;9266;51.132;17.062;2023-07-16T08:14:14;4.95;;;1.95;;
18280;SDS011;9266;51.132;17.062;2023-07-16T08:16:41;2.70;;;1.80;;
18280;SDS011;9266;51.132;17.062;2023-07-16T08:19:07;2.95;;;2.10;;
18280;SDS011;9266;51.132;17.062;2023-07-16T08:21:34;2.55;;;1.83;;
18280;SDS011;9266;51.132;17.062;2023-07-16T08:24:04;2.70;;;1.88;;
18280;SDS011;9266;51.132;17.062;2023-07-16T08:26:31;4.65;;;2.10;;
18280;SDS011;9266;51.132;17.062;2023-07-16T08:28:58;3.50;;;1.90;;
18280;SDS011;9266;51.132;17.062;2023-07-16T08:31:26;2.30;;;1.98;;
18280;SDS011;9266;51.132;17.062;2023-07-16T08:33:53;2.10;;;1.88;;
18280;SDS011;9266;51.132;17.062;2023-07-16T08:36:20;3.00;;;1.83;;
18280;SDS011;9266;51.132;17.062;2023-07-16T08:38:47;3.75;;;1.80;;
18280;SDS011;9266;51.132;17.062;2023-07-16T08:41:15;2.22;;;1.77;;
18280;SDS011;9266;51.132;17.062;2023-07-16T08:43:42;3.80;;;2.00;;
18280;SDS011;9266;51.132;17.062;2023-07-16T08:46:12;2.20;;;1.65;;
18280;SDS011;9266;51.132;17.062;2023-07-16T08:48:39;3.50;;;2.50;;
18280;SDS011;9266;51.132;17.062;2023-07-16T08:51:07;2.35;;;2.00;;
18280;SDS011;9266;51.132;17.062;2023-07-16T08:53:36;5.03;;;2.22;;
18280;SDS011;9266;51.132;17.062;2023-07-16T08:56:03;3.58;;;2.40;;
18280;SDS011;9266;51.132;17.062;2023-07-16T08:58:32;2.60;;;1.90;;
18280;SDS011;9266;51.132;17.062;2023-07-16T09:00:59;1.88;;;1.63;;
18280;SDS011;9266;51.132;17.062;2023-07-16T09:03:27;2.00;;;1.80;;
18280;SDS011;9266;51.132;17.062;2023-07-16T09:05:54;2.80;;;1.80;;
18280;SDS011;9266;51.132;17.062;2023-07-16T09:08:21;2.10;;;1.90;;
18280;SDS011;9266;51.132;17.062;2023-07-16T09:10:53;2.08;;;1.75;;
18280;SDS011;9266;51.132;17.062;2023-07-16T09:13:21;3.15;;;2.03;;
18280;SDS011;9266;51.132;17.062;2023-07-16T09:15:53;2.35;;;1.90;;
18280;SDS011;9266;51.132;17.062;2023-07-16T09:18:21;2.42;;;2.00;;
18280;SDS011;9266;51.132;17.062;2023-07-16T09:20:48;3.05;;;2.38;;
18280;SDS011;9266;51.132;17.062;2023-07-16T09:23:20;3.30;;;2.58;;
18280;SDS011;9266;51.132;17.062;2023-07-16T09:25:49;3.35;;;2.20;;
18280;SDS011;9266;51.132;17.062;2023-07-16T09:28:18;4.65;;;2.53;;
18280;SDS011;9266;51.132;17.062;2023-07-16T09:30:45;4.18;;;2.20;;
18280;SDS011;9266;51.132;17.062;2023-07-16T09:33:15;6.93;;;2.40;;
18280;SDS011;9266;51.132;17.062;2023-07-16T09:35:43;4.15;;;2.38;;
18280;SDS011;9266;51.132;17.062;2023-07-16T09:38:10;2.30;;;2.10;;
18280;SDS011;9266;51.132;17.062;2023-07-16T09:40:37;5.00;;;2.58;;
18280;SDS011;9266;51.132;17.062;2023-07-16T09:43:08;3.58;;;2.33;;
18280;SDS011;9266;51.132;17.062;2023-07-16T09:45:35;3.53;;;2.20;;
18280;SDS011;9266;51.132;17.062;2023-07-16T09:48:03;3.50;;;2.38;;
18280;SDS011;9266;51.132;17.062;2023-07-16T09:50:33;2.70;;;2.40;;
18280;SDS011;9266;51.132;17.062;2023-07-16T09:53:01;3.85;;;2.60;;
18280;SDS011;9266;51.132;17.062;2023-07-16T09:55:30;3.05;;;2.63;;
18280;SDS011;9266;51.132;17.062;2023-07-16T09:57:59;2.78;;;2.28;;
18280;SDS011;9266;51.132;17.062;2023-07-16T10:00:28;3.13;;;2.20;;
18280;SDS011;9266;51.132;17.062;2023-07-16T10:02:55;3.55;;;2.00;;
18280;SDS011;9266;51.132;17.062;2023-07-16T10:05:24;4.38;;;2.20;;
18280;SDS011;9266;51.132;17.062;2023-07-16T10:07:54;4.13;;;2.10;;
18280;SDS011;9266;51.132;17.062;2023-07-16T10:10:25;4.32;;;2.58;;
18280;SDS011;9266;51.132;17.062;2023-07-16T10:13:04;3.47;;;2.20;;
18280;SDS011;9266;51.132;17.062;2023-07-16T10:15:31;3.35;;;2.10;;
18280;SDS011;9266;51.132;17.062;2023-07-16T10:17:57;2.40;;;2.20;;
18280;SDS011;9266;51.132;17.062;2023-07-16T10:20:28;4.40;;;2.17;;
18280;SDS011;9266;51.132;17.062;2023-07-16T10:22:57;2.60;;;2.40;;
18280;SDS011;9266;51.132;17.062;2023-07-16T10:25:25;2.45;;;2.25;;
18280;SDS011;9266;51.132;17.062;2023-07-16T10:27:55;3.25;;;2.60;;
18280;SDS011;9266;51.132;17.062;2023-07-16T10:30:22;2.33;;;2.13;;
18280;SDS011;9266;51.132;17.062;2023-07-16T10:32:50;2.58;;;2.13;;
18280;SDS011;9266;51.132;17.062;2023-07-16T10:35:18;2.70;;;2.50;;
18280;SDS011;9266;51.132;17.062;2023-07-16T10:37:45;4.35;;;2.65;;
18280;SDS011;9266;51.132;17.062;2023-07-16T10:40:14;3.05;;;2.38;;
18280;SDS011;9266;51.132;17.062;2023-07-16T10:42:42;2.72;;;2.33;;
18280;SDS011;9266;51.132;17.062;2023-07-16T10:45:11;3.08;;;2.70;;
18280;SDS011;9266;51.132;17.062;2023-07-16T10:47:39;3.33;;;2.75;;
18280;SDS011;9266;51.132;17.062;2023-07-16T10:50:16;4.18;;;2.70;;
18280;SDS011;9266;51.132;17.062;2023-07-16T10:52:45;3.35;;;2.50;;
18280;SDS011;9266;51.132;17.062;2023-07-16T10:55:17;2.97;;;2.55;;
18280;SDS011;9266;51.132;17.062;2023-07-16T10:57:44;4.15;;;2.47;;
18280;SDS011;9266;51.132;17.062;2023-07-16T11:00:13;2.97;;;2.42;;
18280;SDS011;9266;51.132;17.062;2023-07-16T11:02:40;3.15;;;2.65;;
18280;SDS011;9266;51.132;17.062;2023-07-16T11:05:09;3.33;;;2.70;;
18280;SDS011;9266;51.132;17.062;2023-07-16T11:07:36;2.67;;;2.28;;
18280;SDS011;9266;51.132;17.062;2023-07-16T11:10:03;2.60;;;2.40;;
18280;SDS011;9266;51.132;17.062;2023-07-16T11:12:32;3.05;;;2.63;;
18280;SDS011;9266;51.132;17.062;2023-07-16T11:14:59;3.15;;;2.83;;
18280;SDS011;9266;51.132;17.062;2023-07-16T11:17:26;2.55;;;2.35;;
18280;SDS011;9266;51.132;17.062;2023-07-16T11:19:54;2.55;;;2.35;;
18280;SDS011;9266;51.132;17.062;2023-07-16T11:22:24;3.03;;;2.60;;
18280;SDS011;9266;51.132;17.062;2023-07-16T11:24:52;2.63;;;2.42;;
18280;SDS011;9266;51.132;17.062;2023-07-16T11:27:20;4.68;;;2.70;;
18280;SDS011;9266;51.132;17.062;2023-07-16T11:29:50;2.97;;;2.50;;
18280;SDS011;9266;51.132;17.062;2023-07-16T11:35:03;2.58;;;2.30;;
18280;SDS011;9266;51.132;17.062;2023-07-16T11:37:32;3.25;;;2.30;;
18280;SDS011;9266;51.132;17.062;2023-07-16T11:40:01;2.20;;;2.00;;
18280;SDS011;9266;51.132;17.062;2023-07-16T11:42:29;2.20;;;2.00;;
18280;SDS011;9266;51.132;17.062;2023-07-16T11:44:58;2.53;;;2.30;;
18280;SDS011;9266;51.132;17.062;2023-07-16T11:47:26;2.78;;;2.10;;
18280;SDS011;9266;51.132;17.062;2023-07-16T11:49:54;2.97;;;1.90;;
18280;SDS011;9266;51.132;17.062;2023-07-16T11:52:23;2.83;;;2.10;;
18280;SDS011;9266;51.132;17.062;2023-07-16T11:54:51;2.83;;;1.92;;
18280;SDS011;9266;51.132;17.062;2023-07-16T11:57:18;1.85;;;1.75;;
18280;SDS011;9266;51.132;17.062;2023-07-16T11:59:45;2.25;;;1.90;;
18280;SDS011;9266;51.132;17.062;2023-07-16T12:02:14;1.92;;;1.80;;
18280;SDS011;9266;51.132;17.062;2023-07-16T12:04:41;2.95;;;2.00;;
18280;SDS011;9266;51.132;17.062;2023-07-16T12:07:08;2.65;;;2.40;;
18280;SDS011;9266;51.132;17.062;2023-07-16T12:09:35;2.47;;;1.95;;
18280;SDS011;9266;51.132;17.062;2023-07-16T12:12:02;2.10;;;1.90;;
18280;SDS011;9266;51.132;17.062;2023-07-16T12:14:30;2.08;;;1.88;;
18280;SDS011;9266;51.132;17.062;2023-07-16T12:16:57;2.72;;;1.92;;
18280;SDS011;9266;51.132;17.062;2023-07-16T12:19:26;4.80;;;1.80;;
18280;SDS011;9266;51.132;17.062;2023-07-16T12:21:52;2.20;;;2.00;;
18280;SDS011;9266;51.132;17.062;2023-07-16T12:24:20;3.03;;;2.20;;
18280;SDS011;9266;51.132;17.062;2023-07-16T12:26:47;2.20;;;2.00;;
18280;SDS011;9266;51.132;17.062;2023-07-16T12:29:14;3.85;;;2.00;;
18280;SDS011;9266;51.132;17.062;2023-07-16T12:31:41;2.30;;;2.00;;
18280;SDS011;9266;51.132;17.062;2023-07-16T12:34:08;2.78;;;1.90;;
18280;SDS011;9266;51.132;17.062;2023-07-16T12:36:36;3.92;;;2.05;;
18280;SDS011;9266;51.132;17.062;2023-07-16T12:39:03;2.20;;;1.95;;
18280;SDS011;9266;51.132;17.062;2023-07-16T12:41:30;3.20;;;2.00;;
18280;SDS011;9266;51.132;17.062;2023-07-16T12:43:57;3.03;;;1.80;;
18280;SDS011;9266;51.132;17.062;2023-07-16T12:46:24;3.22;;;2.30;;
18280;SDS011;9266;51.132;17.062;2023-07-16T12:48:51;2.20;;;2.00;;
18280;SDS011;9266;51.132;17.062;2023-07-16T12:51:18;3.70;;;2.20;;
18280;SDS011;9266;51.132;17.062;2023-07-16T12:53:46;2.20;;;2.00;;
18280;SDS011;9266;51.132;17.062;2023-07-16T12:56:13;2.20;;;2.00;;
18280;SDS011;9266;51.132;17.062;2023-07-16T12:58:40;3.63;;;2.00;;
18280;SDS011;9266;51.132;17.062;2023-07-16T13:01:07;2.10;;;1.90;;
18280;SDS011;9266;51.132;17.062;2023-07-16T13:03:34;3.20;;;2.10;;
18280;SDS011;9266;51.132;17.062;2023-07-16T13:06:01;4.05;;;2.17;;
18280;SDS011;9266;51.132;17.062;2023-07-16T13:08:28;2.42;;;2.20;;
18280;SDS011;9266;51.132;17.062;2023-07-16T13:10:57;2.10;;;1.90;;
18280;SDS011;9266;51.132;17.062;2023-07-16T13:13:25;2.40;;;2.20;;
18280;SDS011;9266;51.132;17.062;2023-07-16T13:15:52;2.67;;;2.20;;
18280;SDS011;9266;51.132;17.062;2023-07-16T13:18:19;4.50;;;2.75;;
18280;SDS011;9266;51.132;17.062;2023-07-16T13:20:45;4.07;;;2.38;;
18280;SDS011;9266;51.132;17.062;2023-07-16T13:23:12;3.13;;;2.50;;
18280;SDS011;9266;51.132;17.062;2023-07-16T13:25:39;3.53;;;2.38;;
18280;SDS011;9266;51.132;17.062;2023-07-16T13:28:08;2.75;;;2.40;;
18280;SDS011;9266;51.132;17.062;2023-07-16T13:30:35;3.05;;;2.60;;
18280;SDS011;9266;51.132;17.062;2023-07-16T13:33:02;3.88;;;3.20;;
18280;SDS011;9266;51.132;17.062;2023-07-16T13:35:29;2.65;;;2.30;;
18280;SDS011;9266;51.132;17.062;2023-07-16T13:37:56;3.70;;;2.72;;
18280;SDS011;9266;51.132;17.062;2023-07-16T13:40:23;2.58;;;2.28;;
18280;SDS011;9266;51.132;17.062;2023-07-16T13:42:50;2.88;;;2.22;;
18280;SDS011;9266;51.132;17.062;2023-07-16T13:45:19;2.58;;;2.22;;
18280;SDS011;9266;51.132;17.062;2023-07-16T13:47:46;2.70;;;2.13;;
18280;SDS011;9266;51.132;17.062;2023-07-16T13:50:13;2.80;;;2.20;;
18280;SDS011;9266;51.132;17.062;2023-07-16T13:52:40;2.38;;;2.17;;
18280;SDS011;9266;51.132;17.062;2023-07-16T13:55:07;5.20;;;2.58;;
18280;SDS011;9266;51.132;17.062;2023-07-16T13:57:34;2.25;;;2.05;;
18280;SDS011;9266;51.132;17.062;2023-07-16T14:00:02;2.50;;;2.30;;
18280;SDS011;9266;51.132;17.062;2023-07-16T14:02:31;2.67;;;2.20;;
18280;SDS011;9266;51.132;17.062;2023-07-16T14:04:58;2.28;;;2.00;;
18280;SDS011;9266;51.132;17.062;2023-07-16T14:07:25;2.88;;;2.40;;
18280;SDS011;9266;51.132;17.062;2023-07-16T14:09:52;3.10;;;2.10;;
18280;SDS011;9266;51.132;17.062;2023-07-16T14:12:19;2.50;;;2.28;;
18280;SDS011;9266;51.132;17.062;2023-07-16T14:14:46;2.50;;;2.30;;
18280;SDS011;9266;51.132;17.062;2023-07-16T14:17:13;2.42;;;2.10;;
18280;SDS011;9266;51.132;17.062;2023-07-16T14:19:41;3.03;;;2.30;;
18280;SDS011;9266;51.132;17.062;2023-07-16T14:22:08;2.97;;;2.47;;
18280;SDS011;9266;51.132;17.062;2023-07-16T14:24:36;2.63;;;2.35;;
18280;SDS011;9266;51.132;17.062;2023-07-16T14:27:05;3.80;;;2.65;;
18280;SDS011;9266;51.132;17.062;2023-07-16T14:29:33;4.70;;;2.60;;
18280;SDS011;9266;51.132;17.062;2023-07-16T14:32:00;3.65;;;2.60;;
18280;SDS011;9266;51.132;17.062;2023-07-16T14:34:27;2.80;;;2.53;;
18280;SDS011;9266;51.132;17.062;2023-07-16T14:36:55;3.00;;;2.40;;
18280;SDS011;9266;51.132;17.062;2023-07-16T14:39:22;3.42;;;2.42;;
18280;SDS011;9266;51.132;17.062;2023-07-16T14:41:49;3.90;;;2.20;;
18280;SDS011;9266;51.132;17.062;2023-07-16T14:44:16;3.50;;;2.40;;
18280;SDS011;9266;51.132;17.062;2023-07-16T14:46:43;2.55;;;2.20;;
18280;SDS011;9266;51.132;17.062;2023-07-16T14:49:10;2.70;;;2.50;;
18280;SDS011;9266;51.132;17.062;2023-07-16T14:51:37;3.45;;;2.47;;
18280;SDS011;9266;51.132;17.062;2023-07-16T14:54:07;2.65;;;2.45;;